Terminal Aerodrome Forecast
Issued by NWS Newport/Morehead City, NC

Home | Current Version | Previous Version | Graphics & Text | Print | Product List | Glossary On
Versions: 1 2 3 4 5 6 7 8 9 10 11 12 13 14 15 16 17 18 19 20
000
FTUS42 KMHX 290500 RRA
TAFEWN
TAF
KEWN 290542Z 2906/3006 00000KT 3SM BR SCT006 BKN150
      TEMPO 2906/2907 1SM BR VV005
     FM290800 00000KT 3SM BR BKN006
     FM291230 35005KT P6SM SCT050 BKN100
     FM291800 01006KT P6SM VCSH SCT025 OVC050
     FM300000 02005KT 5SM -RA SCT020 OVC040=

USA.gov is the U.S. government's official web portal to all federal, state and local government web resources and services.